Weather History for Granbury, TX

Change the Weather History Date:

Wednesday, January 1, 2014

  Actual Average (KSEP) Record (KSEP)
Temperature  
Mean Temperature 53 °F -  
Max Temperature 72 °F 50 °F 82 °F (2006)
Min Temperature 34 °F 29 °F 14 °F (1974)
Degree Days  
Heating Degree Days 12    
Growing Degree Days 3 (Base 50)    
Moisture  
Dew Point 35 °F    
Average Humidity 60    
Maximum Humidity 86    
Minimum Humidity 31    
Precipitation  
Precipitation 0.00 in - - ()
Sea Level Pressure  
Sea Level Pressure 30.05 in    
Wind  
Wind Speed 10 mph (South)    
Max Wind Speed 23 mph    
Max Gust Speed 32 mph    
Visibility 10 miles    
Events      
Averages and records for this station are not official NWS values.
T = Trace of Precipitation, MM = Missing Value Source: NWS Daily Summary

Daily Weather History Graph

Daily Weather History Graph

Search for Another Location

Airport:

Trip Planner

Search our weather history database for the weather conditions in past years. The results will help you decide how hot, cold, wet, or windy it might be!

Date:

Astronomy

Jan. 01, 2014 Rise Set
Actual Time 7:32 AM CST 5:37 PM CST
Civil Twilight 7:05 AM CST 6:04 PM CST
Nautical Twilight 6:35 AM CST 6:34 PM CST
Astronomical Twilight 6:05 AM CST 7:04 PM CST
Moon 7:28 AM CST (1/1) 6:19 PM CST (1/1)
Length of Visible Light 10h 58m
Length of Day
10h 04m
New Moon, 0% of the Moon is Illuminated
Jan 1
New Moon
Jan 7
First Quarter
Jan 15
Full
Jan 23
Last Quarter
Jan 30
New

Hourly Weather History & Observations

Time (CST) Temp. Windchill Dew Point Humidity Pressure Visibility Wind Dir Wind Speed Gust Speed Precip Events Conditions
12:15 AM 38.8 °F 32.6 °F 29.5 °F 69% 30.19 in 10.0 mi SE 9.2 mph - N/A   Clear
12:35 AM 37.4 °F 32.1 °F 29.7 °F 74% 30.18 in 10.0 mi ESE 6.9 mph - N/A   Clear
12:55 AM 37.0 °F 32.4 °F 29.7 °F 75% 30.18 in 10.0 mi ESE 5.8 mph - N/A   Clear
1:15 AM 36.9 °F 30.7 °F 29.8 °F 76% 30.17 in 10.0 mi ESE 8.1 mph - N/A   Clear
1:35 AM 36.5 °F 31.0 °F 30.0 °F 77% 30.16 in 10.0 mi ESE 6.9 mph - N/A   Clear
1:55 AM 36.1 °F 31.4 °F 29.8 °F 78% 30.14 in 10.0 mi ESE 5.8 mph - N/A   Clear
2:15 AM 35.8 °F 31.9 °F 29.8 °F 79% 30.14 in 10.0 mi ESE 4.6 mph - N/A   Clear
2:35 AM 35.6 °F 31.7 °F 29.8 °F 80% 30.14 in 10.0 mi ESE 4.6 mph - N/A   Clear
2:55 AM 35.6 °F 30.7 °F 29.8 °F 80% 30.13 in 10.0 mi ESE 5.8 mph - N/A   Clear
3:15 AM 35.1 °F 32.2 °F 30.2 °F 82% 30.13 in 10.0 mi ESE 3.5 mph - N/A   Clear
3:35 AM 34.7 °F 30.6 °F 29.8 °F 82% 30.12 in 10.0 mi ESE 4.6 mph - N/A   Clear
3:55 AM 34.7 °F 30.6 °F 30.0 °F 83% 30.12 in 10.0 mi ESE 4.6 mph - N/A   Clear
4:15 AM 34.9 °F 29.9 °F 30.2 °F 83% 30.10 in 10.0 mi ESE 5.8 mph - N/A   Clear
4:35 AM 34.7 °F 30.6 °F 30.0 °F 83% 30.10 in 10.0 mi ESE 4.6 mph - N/A   Clear
4:55 AM 34.9 °F 29.9 °F 30.2 °F 83% 30.10 in 10.0 mi ESE 5.8 mph - N/A   Clear
5:15 AM 34.9 °F 29.9 °F 30.2 °F 83% 30.09 in 10.0 mi ESE 5.8 mph - N/A   Clear
5:35 AM 34.9 °F 29.9 °F 30.9 °F 85% 30.09 in 10.0 mi ESE 5.8 mph - N/A   Clear
5:55 AM 35.1 °F 29.3 °F 31.1 °F 85% 30.08 in 10.0 mi ESE 6.9 mph - N/A   Clear
6:15 AM 34.9 °F 29.0 °F 30.9 °F 85% 30.07 in 10.0 mi ESE 6.9 mph - N/A   Clear
6:35 AM 35.1 °F 29.3 °F 31.1 °F 85% 30.07 in 10.0 mi ESE 6.9 mph - N/A   Clear
6:55 AM 34.9 °F 29.9 °F 31.1 °F 86% 30.07 in 10.0 mi ESE 5.8 mph - N/A   Clear
7:15 AM 34.9 °F 29.0 °F 31.1 °F 86% 30.07 in 10.0 mi ESE 6.9 mph - N/A   Clear
7:35 AM 34.7 °F 28.8 °F 30.9 °F 86% 30.07 in 10.0 mi ESE 6.9 mph - N/A   Clear
7:55 AM 35.2 °F 29.5 °F 31.1 °F 85% 30.07 in 10.0 mi East 6.9 mph - N/A   Clear
8:15 AM 36.3 °F 31.6 °F 32.0 °F 84% 30.07 in 10.0 mi ESE 5.8 mph - N/A   Clear
8:35 AM 38.5 °F 34.1 °F 32.4 °F 79% 30.07 in 10.0 mi SE 5.8 mph - N/A   Clear
8:55 AM 43.5 °F 37.9 °F 33.8 °F 69% 30.06 in 10.0 mi SSE 10.4 mph - N/A   Clear
9:15 AM 45.1 °F 40.8 °F 34.5 °F 66% 30.06 in 10.0 mi South 8.1 mph - N/A   Clear
9:35 AM 47.8 °F - 36.1 °F 64% 30.06 in 10.0 mi SSE 10.4 mph - N/A   Clear
9:55 AM 51.1 °F - 37.9 °F 61% 30.06 in 10.0 mi South 9.2 mph - N/A   Clear
10:15 AM 53.1 °F - 39.0 °F 59% 30.05 in 10.0 mi South 10.4 mph - N/A   Clear
10:35 AM 55.9 °F - 40.6 °F 56% 30.04 in 10.0 mi South 15.0 mph 21.9 mph N/A   Clear
10:55 AM 59.5 °F - 42.4 °F 53% 30.03 in 10.0 mi SSW 13.8 mph 20.7 mph N/A   Clear
11:15 AM 60.8 °F - 42.8 °F 52% 30.02 in 10.0 mi SSW 15.0 mph 24.2 mph N/A   Clear
11:35 AM 62.8 °F - 43.5 °F 49% 30.01 in 10.0 mi SSW 16.1 mph 27.6 mph N/A   Clear
11:55 AM 64.4 °F - 43.7 °F 47% 29.99 in 10.0 mi SSW 19.6 mph 27.6 mph N/A   Clear
12:15 PM 65.3 °F - 43.7 °F 46% 29.98 in 10.0 mi South 17.3 mph 23.0 mph N/A   Clear
12:35 PM 66.6 °F - 43.7 °F 44% 29.96 in 10.0 mi SSW 18.4 mph 26.5 mph N/A   Clear
12:55 PM 68.2 °F - 43.9 °F 41% 29.95 in 10.0 mi South 18.4 mph - N/A   Clear
1:15 PM 69.1 °F - 43.3 °F 39% 29.95 in 10.0 mi South 17.3 mph 25.3 mph N/A   Clear
1:35 PM 70.5 °F - 43.2 °F 37% 29.93 in 10.0 mi SSW 19.6 mph 25.3 mph N/A   Clear
1:55 PM 70.9 °F - 42.6 °F 36% 29.91 in 10.0 mi SSW 15.0 mph 26.5 mph N/A   Clear
2:15 PM 70.9 °F - 42.1 °F 35% 29.90 in 10.0 mi SSW 15.0 mph 24.2 mph N/A   Clear
2:35 PM 70.7 °F - 42.8 °F 36% 29.90 in 10.0 mi SSW 16.1 mph 23.0 mph N/A   Clear
2:55 PM 71.1 °F - 43.0 °F 36% 29.89 in 10.0 mi SW 19.6 mph 24.2 mph N/A   Clear
3:15 PM 71.6 °F - 44.1 °F 37% 29.89 in 10.0 mi SSW 15.0 mph 21.9 mph N/A   Clear
3:35 PM 72.0 °F - 42.3 °F 34% 29.89 in 10.0 mi SSW 19.6 mph 25.3 mph N/A   Clear
3:55 PM 72.0 °F - 39.9 °F 31% 29.89 in 10.0 mi SSW 17.3 mph 26.5 mph N/A   Clear
4:15 PM 72.0 °F - 39.6 °F 31% 29.90 in 10.0 mi SW 16.1 mph 23.0 mph N/A   Clear
4:35 PM 71.6 °F - 39.6 °F 31% 29.89 in 10.0 mi SSW 13.8 mph 19.6 mph N/A   Clear
4:55 PM 70.5 °F - 39.6 °F 32% 29.90 in 10.0 mi SSW 12.7 mph 18.4 mph N/A   Clear
5:15 PM 69.3 °F - 39.6 °F 34% 29.91 in 10.0 mi SW 8.1 mph - N/A   Clear
5:35 PM 66.6 °F - 39.7 °F 37% 29.93 in 10.0 mi WSW 4.6 mph - N/A   Clear
5:55 PM 64.0 °F - 39.6 °F 41% 29.93 in 10.0 mi SW 5.8 mph - N/A   Clear
6:15 PM 63.3 °F - 39.4 °F 41% 29.95 in 10.0 mi SW 4.6 mph - N/A   Clear
6:35 PM 62.6 °F - 39.6 °F 43% 29.96 in 10.0 mi SW 3.5 mph - N/A   Clear
6:55 PM 60.3 °F - 39.9 °F 47% 29.97 in 10.0 mi WSW 4.6 mph - N/A   Clear
7:15 PM 57.2 °F - 40.1 °F 53% 29.98 in 10.0 mi West 6.9 mph - N/A   Clear
7:35 PM 59.4 °F - 31.1 °F 34% 30.03 in 10.0 mi NNW 23.0 mph 32.2 mph N/A   Clear
7:55 PM 57.2 °F - 31.1 °F 37% 30.05 in 10.0 mi NW 17.3 mph 26.5 mph N/A   Clear
8:15 PM 55.4 °F - 32.2 °F 41% 30.07 in 10.0 mi NW 20.7 mph 24.2 mph N/A   Clear
8:35 PM 53.6 °F - 33.3 °F 46% 30.09 in 10.0 mi NW 18.4 mph 26.5 mph N/A   Clear
8:55 PM 52.3 °F - 34.0 °F 50% 30.11 in 10.0 mi NW 17.3 mph 25.3 mph N/A   Clear
9:15 PM 50.9 °F - 34.7 °F 54% 30.12 in 10.0 mi NW 13.8 mph 21.9 mph N/A   Clear
9:35 PM 49.5 °F - 34.3 °F 56% 30.14 in 10.0 mi NW 19.6 mph 28.8 mph N/A   Clear
9:55 PM 46.4 °F 39.0 °F 32.5 °F 59% 30.17 in 10.0 mi NW 19.6 mph 28.8 mph N/A   Clear
10:15 PM 43.7 °F 35.4 °F 31.6 °F 63% 30.18 in 10.0 mi NW 19.6 mph 26.5 mph N/A   Clear
10:35 PM 42.3 °F 35.5 °F 31.1 °F 65% 30.20 in 10.0 mi WNW 12.7 mph 23.0 mph N/A   Clear
10:55 PM 39.9 °F 30.8 °F 29.5 °F 66% 30.23 in 10.0 mi NW 18.4 mph 24.2 mph N/A   Clear
11:15 PM 38.1 °F 28.8 °F 27.7 °F 66% 30.24 in 10.0 mi NW 17.3 mph 24.2 mph N/A   Clear
11:35 PM 36.7 °F 26.3 °F 26.8 °F 67% 30.26 in 10.0 mi NW 19.6 mph 25.3 mph N/A   Clear
11:55 PM 35.6 °F 27.1 °F 25.7 °F 67% 30.27 in 10.0 mi NW 12.7 mph 25.3 mph N/A   Clear